sensor_id;sensor_type;location;lat;lon;timestamp;P1;durP1;ratioP1;P2;durP2;ratioP2
17310;SDS011;8773;43.300;0.394;2022-09-04T00:02:32;5.18;;;4.13;;
17310;SDS011;8773;43.300;0.394;2022-09-04T00:05:25;5.38;;;4.35;;
17310;SDS011;8773;43.300;0.394;2022-09-04T00:08:12;7.07;;;4.93;;
17310;SDS011;8773;43.300;0.394;2022-09-04T00:10:51;6.00;;;4.68;;
17310;SDS011;8773;43.300;0.394;2022-09-04T00:13:23;5.25;;;4.85;;
17310;SDS011;8773;43.300;0.394;2022-09-04T00:15:56;4.85;;;4.38;;
17310;SDS011;8773;43.300;0.394;2022-09-04T00:18:33;5.20;;;4.70;;
17310;SDS011;8773;43.300;0.394;2022-09-04T00:21:08;5.50;;;5.03;;
17310;SDS011;8773;43.300;0.394;2022-09-04T00:23:46;4.93;;;4.53;;
17310;SDS011;8773;43.300;0.394;2022-09-04T00:26:19;5.20;;;4.80;;
17310;SDS011;8773;43.300;0.394;2022-09-04T00:28:57;5.10;;;4.70;;
17310;SDS011;8773;43.300;0.394;2022-09-04T00:31:30;5.05;;;4.43;;
17310;SDS011;8773;43.300;0.394;2022-09-04T00:34:05;5.32;;;4.82;;
17310;SDS011;8773;43.300;0.394;2022-09-04T00:36:46;5.03;;;4.43;;
17310;SDS011;8773;43.300;0.394;2022-09-04T00:39:19;5.22;;;4.82;;
17310;SDS011;8773;43.300;0.394;2022-09-04T00:41:54;5.30;;;4.85;;
17310;SDS011;8773;43.300;0.394;2022-09-04T00:44:35;5.25;;;4.85;;
17310;SDS011;8773;43.300;0.394;2022-09-04T00:47:21;5.30;;;4.80;;
17310;SDS011;8773;43.300;0.394;2022-09-04T00:50:26;5.30;;;4.90;;
17310;SDS011;8773;43.300;0.394;2022-09-04T00:53:08;5.07;;;4.57;;
17310;SDS011;8773;43.300;0.394;2022-09-04T00:55:59;5.53;;;5.05;;
17310;SDS011;8773;43.300;0.394;2022-09-04T00:58:46;5.60;;;5.00;;
17310;SDS011;8773;43.300;0.394;2022-09-04T01:01:24;4.75;;;4.45;;
17310;SDS011;8773;43.300;0.394;2022-09-04T01:04:07;5.70;;;5.10;;
17310;SDS011;8773;43.300;0.394;2022-09-04T01:06:58;5.60;;;5.10;;
17310;SDS011;8773;43.300;0.394;2022-09-04T01:09:43;5.45;;;4.97;;
17310;SDS011;8773;43.300;0.394;2022-09-04T01:12:25;5.60;;;5.22;;
17310;SDS011;8773;43.300;0.394;2022-09-04T01:15:04;6.13;;;5.47;;
17310;SDS011;8773;43.300;0.394;2022-09-04T01:17:43;5.72;;;5.15;;
17310;SDS011;8773;43.300;0.394;2022-09-04T01:20:20;4.85;;;4.47;;
17310;SDS011;8773;43.300;0.394;2022-09-04T01:23:05;5.57;;;5.15;;
17310;SDS011;8773;43.300;0.394;2022-09-04T01:26:00;5.22;;;4.93;;
17310;SDS011;8773;43.300;0.394;2022-09-04T01:28:39;4.93;;;4.63;;
17310;SDS011;8773;43.300;0.394;2022-09-04T01:31:20;5.25;;;4.82;;
17310;SDS011;8773;43.300;0.394;2022-09-04T01:33:59;5.53;;;5.03;;
17310;SDS011;8773;43.300;0.394;2022-09-04T01:36:38;5.00;;;4.53;;
17310;SDS011;8773;43.300;0.394;2022-09-04T01:39:12;4.80;;;4.50;;
17310;SDS011;8773;43.300;0.394;2022-09-04T01:41:43;7.18;;;5.00;;
17310;SDS011;8773;43.300;0.394;2022-09-04T01:44:17;5.22;;;4.93;;
17310;SDS011;8773;43.300;0.394;2022-09-04T01:46:47;6.07;;;5.55;;
17310;SDS011;8773;43.300;0.394;2022-09-04T01:49:27;5.03;;;4.72;;
17310;SDS011;8773;43.300;0.394;2022-09-04T01:52:04;6.28;;;5.10;;
17310;SDS011;8773;43.300;0.394;2022-09-04T01:54:46;7.03;;;4.97;;
17310;SDS011;8773;43.300;0.394;2022-09-04T01:57:27;5.78;;;5.30;;
17310;SDS011;8773;43.300;0.394;2022-09-04T02:00:06;5.03;;;4.63;;
17310;SDS011;8773;43.300;0.394;2022-09-04T02:02:42;6.75;;;5.28;;
17310;SDS011;8773;43.300;0.394;2022-09-04T02:05:20;5.40;;;5.03;;
17310;SDS011;8773;43.300;0.394;2022-09-04T02:07:59;5.70;;;5.10;;
17310;SDS011;8773;43.300;0.394;2022-09-04T02:10:36;6.43;;;5.28;;
17310;SDS011;8773;43.300;0.394;2022-09-04T02:13:15;6.10;;;5.15;;
17310;SDS011;8773;43.300;0.394;2022-09-04T02:15:52;7.18;;;5.03;;
17310;SDS011;8773;43.300;0.394;2022-09-04T02:18:33;5.72;;;5.30;;
17310;SDS011;8773;43.300;0.394;2022-09-04T02:21:12;5.43;;;5.03;;
17310;SDS011;8773;43.300;0.394;2022-09-04T02:23:48;5.47;;;4.97;;
17310;SDS011;8773;43.300;0.394;2022-09-04T02:26:29;6.23;;;5.63;;
17310;SDS011;8773;43.300;0.394;2022-09-04T02:29:07;5.23;;;4.73;;
17310;SDS011;8773;43.300;0.394;2022-09-04T02:31:43;5.23;;;4.80;;
17310;SDS011;8773;43.300;0.394;2022-09-04T02:34:21;5.77;;;5.27;;
17310;SDS011;8773;43.300;0.394;2022-09-04T02:37:00;5.10;;;4.78;;
17310;SDS011;8773;43.300;0.394;2022-09-04T02:39:37;6.20;;;4.80;;
17310;SDS011;8773;43.300;0.394;2022-09-04T02:42:16;4.77;;;4.37;;
17310;SDS011;8773;43.300;0.394;2022-09-04T02:44:59;4.93;;;4.43;;
17310;SDS011;8773;43.300;0.394;2022-09-04T02:47:42;5.53;;;5.00;;
17310;SDS011;8773;43.300;0.394;2022-09-04T02:50:16;5.20;;;4.70;;
17310;SDS011;8773;43.300;0.394;2022-09-04T02:52:58;6.87;;;5.17;;
17310;SDS011;8773;43.300;0.394;2022-09-04T02:55:51;5.85;;;5.28;;
17310;SDS011;8773;43.300;0.394;2022-09-04T02:58:36;4.70;;;4.30;;
17310;SDS011;8773;43.300;0.394;2022-09-04T03:01:21;5.43;;;5.00;;
17310;SDS011;8773;43.300;0.394;2022-09-04T03:03:59;5.17;;;4.67;;
17310;SDS011;8773;43.300;0.394;2022-09-04T03:06:45;7.80;;;5.10;;
17310;SDS011;8773;43.300;0.394;2022-09-04T03:09:19;5.93;;;4.20;;
17310;SDS011;8773;43.300;0.394;2022-09-04T03:11:54;7.18;;;5.18;;
17310;SDS011;8773;43.300;0.394;2022-09-04T03:14:28;6.13;;;4.47;;
17310;SDS011;8773;43.300;0.394;2022-09-04T03:17:07;4.88;;;4.40;;
17310;SDS011;8773;43.300;0.394;2022-09-04T03:19:41;4.90;;;4.50;;
17310;SDS011;8773;43.300;0.394;2022-09-04T03:22:17;6.65;;;4.60;;
17310;SDS011;8773;43.300;0.394;2022-09-04T03:24:59;4.88;;;4.45;;
17310;SDS011;8773;43.300;0.394;2022-09-04T03:27:33;4.82;;;4.15;;
17310;SDS011;8773;43.300;0.394;2022-09-04T03:30:03;5.53;;;4.47;;
17310;SDS011;8773;43.300;0.394;2022-09-04T03:32:37;5.67;;;4.50;;
17310;SDS011;8773;43.300;0.394;2022-09-04T03:35:14;4.77;;;4.37;;
17310;SDS011;8773;43.300;0.394;2022-09-04T03:37:55;4.77;;;4.33;;
17310;SDS011;8773;43.300;0.394;2022-09-04T03:40:33;4.93;;;4.53;;
17310;SDS011;8773;43.300;0.394;2022-09-04T03:46:18;6.17;;;4.63;;
17310;SDS011;8773;43.300;0.394;2022-09-04T03:49:03;4.73;;;4.43;;
17310;SDS011;8773;43.300;0.394;2022-09-04T03:51:42;5.13;;;4.50;;
17310;SDS011;8773;43.300;0.394;2022-09-04T03:54:22;5.37;;;4.87;;
17310;SDS011;8773;43.300;0.394;2022-09-04T03:57:04;4.97;;;4.53;;
17310;SDS011;8773;43.300;0.394;2022-09-04T03:59:45;5.73;;;5.13;;
17310;SDS011;8773;43.300;0.394;2022-09-04T04:02:24;4.90;;;4.50;;
17310;SDS011;8773;43.300;0.394;2022-09-04T04:05:09;4.83;;;4.53;;
17310;SDS011;8773;43.300;0.394;2022-09-04T04:07:52;5.03;;;4.63;;
17310;SDS011;8773;43.300;0.394;2022-09-04T04:10:32;5.90;;;5.17;;
17310;SDS011;8773;43.300;0.394;2022-09-04T04:13:13;5.57;;;5.07;;
17310;SDS011;8773;43.300;0.394;2022-09-04T04:16:01;6.20;;;5.10;;
17310;SDS011;8773;43.300;0.394;2022-09-04T04:18:50;5.07;;;4.77;;
17310;SDS011;8773;43.300;0.394;2022-09-04T04:21:32;6.03;;;4.75;;
17310;SDS011;8773;43.300;0.394;2022-09-04T04:27:20;5.03;;;4.63;;
17310;SDS011;8773;43.300;0.394;2022-09-04T04:30:03;5.37;;;5.00;;
17310;SDS011;8773;43.300;0.394;2022-09-04T04:32:44;5.43;;;5.13;;
17310;SDS011;8773;43.300;0.394;2022-09-04T04:35:27;5.50;;;5.00;;
17310;SDS011;8773;43.300;0.394;2022-09-04T04:38:07;5.27;;;4.87;;
17310;SDS011;8773;43.300;0.394;2022-09-04T04:40:56;5.57;;;5.10;;
17310;SDS011;8773;43.300;0.394;2022-09-04T04:43:34;5.83;;;5.10;;
17310;SDS011;8773;43.300;0.394;2022-09-04T04:46:16;5.03;;;4.67;;
17310;SDS011;8773;43.300;0.394;2022-09-04T04:49:00;5.07;;;4.73;;
17310;SDS011;8773;43.300;0.394;2022-09-04T04:54:41;5.13;;;4.77;;
17310;SDS011;8773;43.300;0.394;2022-09-04T04:57:19;5.60;;;4.77;;
17310;SDS011;8773;43.300;0.394;2022-09-04T04:59:56;5.10;;;4.67;;
17310;SDS011;8773;43.300;0.394;2022-09-04T05:02:34;5.50;;;5.20;;
17310;SDS011;8773;43.300;0.394;2022-09-04T05:05:10;4.50;;;4.20;;
17310;SDS011;8773;43.300;0.394;2022-09-04T05:07:47;5.23;;;4.83;;
17310;SDS011;8773;43.300;0.394;2022-09-04T05:10:33;5.63;;;5.20;;
17310;SDS011;8773;43.300;0.394;2022-09-04T05:13:10;5.63;;;5.03;;
17310;SDS011;8773;43.300;0.394;2022-09-04T05:15:44;5.13;;;4.20;;
17310;SDS011;8773;43.300;0.394;2022-09-04T05:18:34;5.30;;;4.90;;
17310;SDS011;8773;43.300;0.394;2022-09-04T05:21:12;5.40;;;5.00;;
17310;SDS011;8773;43.300;0.394;2022-09-04T05:23:49;7.07;;;4.70;;
17310;SDS011;8773;43.300;0.394;2022-09-04T05:26:25;4.63;;;4.33;;
17310;SDS011;8773;43.300;0.394;2022-09-04T05:29:00;5.13;;;4.53;;
17310;SDS011;8773;43.300;0.394;2022-09-04T05:31:38;5.50;;;4.90;;
17310;SDS011;8773;43.300;0.394;2022-09-04T05:34:14;5.00;;;4.50;;
17310;SDS011;8773;43.300;0.394;2022-09-04T05:36:50;5.17;;;4.63;;
17310;SDS011;8773;43.300;0.394;2022-09-04T05:39:28;5.37;;;4.97;;
17310;SDS011;8773;43.300;0.394;2022-09-04T05:45:05;4.43;;;4.13;;
17310;SDS011;8773;43.300;0.394;2022-09-04T05:47:42;5.17;;;4.67;;
17310;SDS011;8773;43.300;0.394;2022-09-04T05:50:25;5.33;;;4.30;;
17310;SDS011;8773;43.300;0.394;2022-09-04T05:53:19;5.23;;;4.70;;
17310;SDS011;8773;43.300;0.394;2022-09-04T05:59:33;4.90;;;4.00;;
17310;SDS011;8773;43.300;0.394;2022-09-04T06:02:28;4.77;;;4.37;;
17310;SDS011;8773;43.300;0.394;2022-09-04T06:05:14;4.30;;;3.90;;
17310;SDS011;8773;43.300;0.394;2022-09-04T06:08:00;4.40;;;4.10;;
17310;SDS011;8773;43.300;0.394;2022-09-04T06:10:42;4.10;;;3.80;;
17310;SDS011;8773;43.300;0.394;2022-09-04T06:13:26;4.30;;;3.90;;
17310;SDS011;8773;43.300;0.394;2022-09-04T06:16:16;3.87;;;3.40;;
17310;SDS011;8773;43.300;0.394;2022-09-04T06:22:10;3.15;;;2.92;;
17310;SDS011;8773;43.300;0.394;2022-09-04T06:25:04;5.22;;;3.25;;
17310;SDS011;8773;43.300;0.394;2022-09-04T06:27:59;4.50;;;3.28;;
17310;SDS011;8773;43.300;0.394;2022-09-04T06:30:37;3.00;;;2.90;;
17310;SDS011;8773;43.300;0.394;2022-09-04T06:36:34;3.17;;;2.90;;
17310;SDS011;8773;43.300;0.394;2022-09-04T06:39:22;2.95;;;2.67;;
17310;SDS011;8773;43.300;0.394;2022-09-04T06:42:08;3.05;;;2.63;;
17310;SDS011;8773;43.300;0.394;2022-09-04T06:44:51;2.42;;;2.22;;
17310;SDS011;8773;43.300;0.394;2022-09-04T06:47:35;2.40;;;2.20;;
17310;SDS011;8773;43.300;0.394;2022-09-04T06:50:21;3.47;;;2.95;;
17310;SDS011;8773;43.300;0.394;2022-09-04T06:53:01;3.13;;;2.20;;
17310;SDS011;8773;43.300;0.394;2022-09-04T06:55:44;3.45;;;2.30;;
17310;SDS011;8773;43.300;0.394;2022-09-04T06:58:35;3.17;;;2.53;;
17310;SDS011;8773;43.300;0.394;2022-09-04T07:01:13;3.58;;;2.80;;
17310;SDS011;8773;43.300;0.394;2022-09-04T07:03:49;2.60;;;2.40;;
17310;SDS011;8773;43.300;0.394;2022-09-04T07:06:31;2.65;;;2.28;;
17310;SDS011;8773;43.300;0.394;2022-09-04T07:09:11;2.50;;;2.30;;
17310;SDS011;8773;43.300;0.394;2022-09-04T07:11:56;2.67;;;2.30;;
17310;SDS011;8773;43.300;0.394;2022-09-04T07:15:03;2.45;;;2.25;;
17310;SDS011;8773;43.300;0.394;2022-09-04T07:18:03;2.40;;;2.17;;
17310;SDS011;8773;43.300;0.394;2022-09-04T07:20:51;3.25;;;2.17;;
17310;SDS011;8773;43.300;0.394;2022-09-04T07:23:32;2.83;;;2.50;;
17310;SDS011;8773;43.300;0.394;2022-09-04T07:26:13;3.47;;;2.40;;
17310;SDS011;8773;43.300;0.394;2022-09-04T07:28:56;2.47;;;2.13;;
17310;SDS011;8773;43.300;0.394;2022-09-04T07:31:38;2.85;;;2.00;;
17310;SDS011;8773;43.300;0.394;2022-09-04T07:34:13;2.50;;;2.30;;
17310;SDS011;8773;43.300;0.394;2022-09-04T07:36:49;2.47;;;2.35;;
17310;SDS011;8773;43.300;0.394;2022-09-04T07:39:27;4.43;;;2.50;;
17310;SDS011;8773;43.300;0.394;2022-09-04T07:42:04;2.60;;;2.50;;
17310;SDS011;8773;43.300;0.394;2022-09-04T07:44:41;2.10;;;2.00;;
17310;SDS011;8773;43.300;0.394;2022-09-04T07:47:21;2.15;;;2.05;;
17310;SDS011;8773;43.300;0.394;2022-09-04T07:50:02;2.63;;;2.38;;
17310;SDS011;8773;43.300;0.394;2022-09-04T07:52:41;2.05;;;1.95;;
17310;SDS011;8773;43.300;0.394;2022-09-04T07:55:36;2.47;;;2.30;;
17310;SDS011;8773;43.300;0.394;2022-09-04T07:58:19;2.45;;;2.25;;
17310;SDS011;8773;43.300;0.394;2022-09-04T08:01:03;3.78;;;2.53;;
17310;SDS011;8773;43.300;0.394;2022-09-04T08:03:48;2.78;;;2.53;;
17310;SDS011;8773;43.300;0.394;2022-09-04T08:06:33;3.13;;;2.60;;
17310;SDS011;8773;43.300;0.394;2022-09-04T08:12:29;4.00;;;2.95;;
17310;SDS011;8773;43.300;0.394;2022-09-04T08:15:13;3.55;;;2.80;;
17310;SDS011;8773;43.300;0.394;2022-09-04T08:17:51;3.10;;;2.90;;
17310;SDS011;8773;43.300;0.394;2022-09-04T08:20:34;3.63;;;2.58;;
17310;SDS011;8773;43.300;0.394;2022-09-04T08:23:16;3.17;;;2.75;;
17310;SDS011;8773;43.300;0.394;2022-09-04T08:25:57;4.75;;;3.42;;
17310;SDS011;8773;43.300;0.394;2022-09-04T08:28:47;3.33;;;3.10;;
17310;SDS011;8773;43.300;0.394;2022-09-04T08:31:40;3.90;;;3.33;;
17310;SDS011;8773;43.300;0.394;2022-09-04T08:37:05;3.50;;;3.20;;
17310;SDS011;8773;43.300;0.394;2022-09-04T08:39:48;3.45;;;3.15;;
17310;SDS011;8773;43.300;0.394;2022-09-04T08:42:34;3.15;;;2.95;;
17310;SDS011;8773;43.300;0.394;2022-09-04T08:45:43;3.10;;;2.90;;
17310;SDS011;8773;43.300;0.394;2022-09-04T08:48:45;2.67;;;2.47;;
17310;SDS011;8773;43.300;0.394;2022-09-04T08:54:57;3.25;;;2.80;;
17310;SDS011;8773;43.300;0.394;2022-09-04T09:00:54;2.97;;;2.78;;
17310;SDS011;8773;43.300;0.394;2022-09-04T09:03:50;2.90;;;2.70;;
17310;SDS011;8773;43.300;0.394;2022-09-04T09:06:46;3.00;;;2.80;;
17310;SDS011;8773;43.300;0.394;2022-09-04T09:09:45;3.53;;;2.58;;
17310;SDS011;8773;43.300;0.394;2022-09-04T09:16:05;2.70;;;2.50;;
17310;SDS011;8773;43.300;0.394;2022-09-04T09:18:57;2.97;;;2.67;;
17310;SDS011;8773;43.300;0.394;2022-09-04T09:21:40;2.70;;;2.50;;
17310;SDS011;8773;43.300;0.394;2022-09-04T09:27:15;3.00;;;2.70;;
17310;SDS011;8773;43.300;0.394;2022-09-04T09:30:09;2.90;;;2.70;;
17310;SDS011;8773;43.300;0.394;2022-09-04T09:32:51;2.90;;;2.70;;
17310;SDS011;8773;43.300;0.394;2022-09-04T09:41:51;2.83;;;2.63;;
17310;SDS011;8773;43.300;0.394;2022-09-04T09:44:53;2.90;;;2.65;;
17310;SDS011;8773;43.300;0.394;2022-09-04T09:57:16;3.47;;;2.65;;
17310;SDS011;8773;43.300;0.394;2022-09-04T10:00:11;2.80;;;2.60;;
17310;SDS011;8773;43.300;0.394;2022-09-04T10:15:26;3.25;;;2.65;;
17310;SDS011;8773;43.300;0.394;2022-09-04T10:21:47;3.58;;;2.97;;
17310;SDS011;8773;43.300;0.394;2022-09-04T10:24:36;3.13;;;2.75;;
17310;SDS011;8773;43.300;0.394;2022-09-04T10:31:09;4.95;;;2.92;;
17310;SDS011;8773;43.300;0.394;2022-09-04T10:34:13;2.95;;;2.63;;
17310;SDS011;8773;43.300;0.394;2022-09-04T10:37:00;4.88;;;3.10;;
17310;SDS011;8773;43.300;0.394;2022-09-04T10:39:43;3.35;;;2.92;;
17310;SDS011;8773;43.300;0.394;2022-09-04T10:42:41;3.90;;;3.13;;
17310;SDS011;8773;43.300;0.394;2022-09-04T10:45:24;2.85;;;2.65;;
17310;SDS011;8773;43.300;0.394;2022-09-04T10:51:03;3.08;;;2.78;;
17310;SDS011;8773;43.300;0.394;2022-09-04T10:53:50;3.40;;;3.10;;
17310;SDS011;8773;43.300;0.394;2022-09-04T10:56:33;3.30;;;2.50;;
17310;SDS011;8773;43.300;0.394;2022-09-04T10:59:18;3.10;;;2.75;;
17310;SDS011;8773;43.300;0.394;2022-09-04T11:02:01;3.90;;;2.75;;
17310;SDS011;8773;43.300;0.394;2022-09-04T11:04:58;3.50;;;2.83;;
17310;SDS011;8773;43.300;0.394;2022-09-04T11:11:04;4.38;;;2.97;;
17310;SDS011;8773;43.300;0.394;2022-09-04T11:13:51;2.47;;;2.38;;
17310;SDS011;8773;43.300;0.394;2022-09-04T11:19:46;3.03;;;2.70;;
17310;SDS011;8773;43.300;0.394;2022-09-04T11:23:00;2.70;;;2.50;;
17310;SDS011;8773;43.300;0.394;2022-09-04T11:26:09;3.22;;;2.40;;
17310;SDS011;8773;43.300;0.394;2022-09-04T11:31:59;3.75;;;2.60;;
17310;SDS011;8773;43.300;0.394;2022-09-04T11:35:21;2.78;;;2.50;;
17310;SDS011;8773;43.300;0.394;2022-09-04T11:38:12;3.08;;;2.50;;
17310;SDS011;8773;43.300;0.394;2022-09-04T11:41:03;2.70;;;2.50;;
17310;SDS011;8773;43.300;0.394;2022-09-04T11:47:02;3.53;;;2.53;;
17310;SDS011;8773;43.300;0.394;2022-09-04T11:49:57;2.80;;;2.60;;
17310;SDS011;8773;43.300;0.394;2022-09-04T11:52:59;3.65;;;2.45;;
17310;SDS011;8773;43.300;0.394;2022-09-04T11:55:47;2.60;;;2.42;;
17310;SDS011;8773;43.300;0.394;2022-09-04T11:58:44;3.88;;;2.78;;
17310;SDS011;8773;43.300;0.394;2022-09-04T12:01:27;2.72;;;2.60;;
17310;SDS011;8773;43.300;0.394;2022-09-04T12:04:17;2.88;;;2.63;;
17310;SDS011;8773;43.300;0.394;2022-09-04T12:07:00;4.22;;;2.75;;
17310;SDS011;8773;43.300;0.394;2022-09-04T12:09:45;3.30;;;3.00;;
17310;SDS011;8773;43.300;0.394;2022-09-04T12:12:36;3.90;;;2.80;;
17310;SDS011;8773;43.300;0.394;2022-09-04T12:15:49;3.35;;;2.35;;
17310;SDS011;8773;43.300;0.394;2022-09-04T12:28:44;2.60;;;2.40;;
17310;SDS011;8773;43.300;0.394;2022-09-04T12:31:56;2.33;;;2.20;;
17310;SDS011;8773;43.300;0.394;2022-09-04T12:35:07;2.60;;;2.40;;
17310;SDS011;8773;43.300;0.394;2022-09-04T12:38:04;2.40;;;2.10;;
17310;SDS011;8773;43.300;0.394;2022-09-04T12:40:51;2.38;;;2.20;;
17310;SDS011;8773;43.300;0.394;2022-09-04T12:43:32;3.85;;;2.30;;
17310;SDS011;8773;43.300;0.394;2022-09-04T12:46:14;2.75;;;2.50;;
17310;SDS011;8773;43.300;0.394;2022-09-04T12:49:02;2.40;;;2.15;;
17310;SDS011;8773;43.300;0.394;2022-09-04T12:51:45;4.45;;;2.33;;
17310;SDS011;8773;43.300;0.394;2022-09-04T12:54:19;2.53;;;2.33;;
17310;SDS011;8773;43.300;0.394;2022-09-04T12:57:00;2.30;;;2.20;;
17310;SDS011;8773;43.300;0.394;2022-09-04T12:59:45;2.28;;;2.17;;
17310;SDS011;8773;43.300;0.394;2022-09-04T13:02:25;2.78;;;2.22;;
17310;SDS011;8773;43.300;0.394;2022-09-04T13:05:21;3.20;;;2.05;;
17310;SDS011;8773;43.300;0.394;2022-09-04T13:08:26;3.78;;;2.22;;
17310;SDS011;8773;43.300;0.394;2022-09-04T13:14:04;2.67;;;2.10;;
17310;SDS011;8773;43.300;0.394;2022-09-04T13:16:52;4.50;;;2.30;;
17310;SDS011;8773;43.300;0.394;2022-09-04T13:19:30;2.45;;;1.80;;
17310;SDS011;8773;43.300;0.394;2022-09-04T13:22:12;3.78;;;2.30;;
17310;SDS011;8773;43.300;0.394;2022-09-04T13:24:50;2.20;;;2.00;;
17310;SDS011;8773;43.300;0.394;2022-09-04T13:27:36;2.50;;;2.30;;
17310;SDS011;8773;43.300;0.394;2022-09-04T13:30:14;2.50;;;2.30;;
17310;SDS011;8773;43.300;0.394;2022-09-04T13:35:55;2.20;;;2.10;;
17310;SDS011;8773;43.300;0.394;2022-09-04T13:38:49;2.08;;;1.90;;
17310;SDS011;8773;43.300;0.394;2022-09-04T13:41:47;2.50;;;2.30;;
17310;SDS011;8773;43.300;0.394;2022-09-04T13:44:31;2.28;;;2.05;;
17310;SDS011;8773;43.300;0.394;2022-09-04T13:47:11;2.55;;;1.80;;
17310;SDS011;8773;43.300;0.394;2022-09-04T13:49:48;2.28;;;2.08;;
17310;SDS011;8773;43.300;0.394;2022-09-04T13:52:23;2.20;;;1.88;;
17310;SDS011;8773;43.300;0.394;2022-09-04T13:54:59;1.85;;;1.75;;
17310;SDS011;8773;43.300;0.394;2022-09-04T13:57:34;1.63;;;1.55;;
17310;SDS011;8773;43.300;0.394;2022-09-04T14:00:06;2.92;;;1.90;;
17310;SDS011;8773;43.300;0.394;2022-09-04T14:02:37;2.40;;;2.20;;
17310;SDS011;8773;43.300;0.394;2022-09-04T14:05:08;2.30;;;2.00;;
17310;SDS011;8773;43.300;0.394;2022-09-04T14:07:40;2.05;;;1.90;;
17310;SDS011;8773;43.300;0.394;2022-09-04T14:10:12;3.53;;;1.70;;
17310;SDS011;8773;43.300;0.394;2022-09-04T14:12:52;2.08;;;1.90;;
17310;SDS011;8773;43.300;0.394;2022-09-04T14:15:51;3.72;;;2.10;;
17310;SDS011;8773;43.300;0.394;2022-09-04T14:18:34;2.67;;;1.80;;
17310;SDS011;8773;43.300;0.394;2022-09-04T14:21:18;2.10;;;2.00;;
17310;SDS011;8773;43.300;0.394;2022-09-04T14:23:58;2.10;;;1.90;;
17310;SDS011;8773;43.300;0.394;2022-09-04T14:26:37;1.90;;;1.80;;
17310;SDS011;8773;43.300;0.394;2022-09-04T14:29:15;1.90;;;1.80;;
17310;SDS011;8773;43.300;0.394;2022-09-04T14:31:56;1.98;;;1.88;;
17310;SDS011;8773;43.300;0.394;2022-09-04T14:34:38;1.90;;;1.80;;
17310;SDS011;8773;43.300;0.394;2022-09-04T14:37:20;1.80;;;1.70;;
17310;SDS011;8773;43.300;0.394;2022-09-04T14:40:14;3.83;;;1.83;;
17310;SDS011;8773;43.300;0.394;2022-09-04T14:42:49;2.75;;;2.00;;
17310;SDS011;8773;43.300;0.394;2022-09-04T14:45:27;12.25;;;2.78;;
17310;SDS011;8773;43.300;0.394;2022-09-04T14:48:04;11.38;;;2.70;;
17310;SDS011;8773;43.300;0.394;2022-09-04T14:50:42;2.33;;;2.05;;
17310;SDS011;8773;43.300;0.394;2022-09-04T14:53:18;1.80;;;1.70;;
17310;SDS011;8773;43.300;0.394;2022-09-04T14:56:06;2.00;;;1.90;;
17310;SDS011;8773;43.300;0.394;2022-09-04T14:58:48;1.90;;;1.80;;
17310;SDS011;8773;43.300;0.394;2022-09-04T15:01:23;1.90;;;1.80;;
17310;SDS011;8773;43.300;0.394;2022-09-04T15:03:54;6.78;;;1.80;;
17310;SDS011;8773;43.300;0.394;2022-09-04T15:06:28;2.92;;;1.77;;
17310;SDS011;8773;43.300;0.394;2022-09-04T15:09:23;2.22;;;1.70;;
17310;SDS011;8773;43.300;0.394;2022-09-04T15:12:11;2.00;;;1.90;;
17310;SDS011;8773;43.300;0.394;2022-09-04T15:14:53;2.30;;;1.70;;
17310;SDS011;8773;43.300;0.394;2022-09-04T15:17:30;1.80;;;1.70;;
17310;SDS011;8773;43.300;0.394;2022-09-04T15:20:05;2.50;;;2.30;;
17310;SDS011;8773;43.300;0.394;2022-09-04T15:22:44;2.22;;;1.95;;
17310;SDS011;8773;43.300;0.394;2022-09-04T15:25:28;3.72;;;1.90;;
17310;SDS011;8773;43.300;0.394;2022-09-04T15:28:25;2.05;;;1.88;;
17310;SDS011;8773;43.300;0.394;2022-09-04T15:31:03;1.90;;;1.80;;
17310;SDS011;8773;43.300;0.394;2022-09-04T15:33:41;2.10;;;1.95;;
17310;SDS011;8773;43.300;0.394;2022-09-04T15:36:13;2.53;;;1.75;;
17310;SDS011;8773;43.300;0.394;2022-09-04T15:38:46;1.80;;;1.70;;
17310;SDS011;8773;43.300;0.394;2022-09-04T15:41:20;2.25;;;2.10;;
17310;SDS011;8773;43.300;0.394;2022-09-04T15:43:56;2.15;;;1.92;;
17310;SDS011;8773;43.300;0.394;2022-09-04T15:46:35;2.08;;;1.88;;
17310;SDS011;8773;43.300;0.394;2022-09-04T15:52:08;1.90;;;1.80;;
17310;SDS011;8773;43.300;0.394;2022-09-04T15:54:56;1.80;;;1.80;;
17310;SDS011;8773;43.300;0.394;2022-09-04T15:57:31;2.67;;;1.50;;
17310;SDS011;8773;43.300;0.394;2022-09-04T16:00:13;1.70;;;1.60;;
17310;SDS011;8773;43.300;0.394;2022-09-04T16:02:49;1.63;;;1.58;;
17310;SDS011;8773;43.300;0.394;2022-09-04T16:05:27;2.08;;;1.77;;
17310;SDS011;8773;43.300;0.394;2022-09-04T16:08:03;1.77;;;1.63;;
17310;SDS011;8773;43.300;0.394;2022-09-04T16:10:49;1.90;;;1.80;;
17310;SDS011;8773;43.300;0.394;2022-09-04T16:13:30;2.00;;;1.90;;
17310;SDS011;8773;43.300;0.394;2022-09-04T16:16:10;2.03;;;1.75;;
17310;SDS011;8773;43.300;0.394;2022-09-04T16:18:48;2.83;;;1.90;;
17310;SDS011;8773;43.300;0.394;2022-09-04T16:21:22;2.00;;;1.90;;
17310;SDS011;8773;43.300;0.394;2022-09-04T16:23:57;2.03;;;1.80;;
17310;SDS011;8773;43.300;0.394;2022-09-04T16:26:34;2.30;;;1.70;;
17310;SDS011;8773;43.300;0.394;2022-09-04T16:29:05;2.88;;;1.60;;
17310;SDS011;8773;43.300;0.394;2022-09-04T16:31:41;2.42;;;1.75;;
17310;SDS011;8773;43.300;0.394;2022-09-04T16:34:21;1.90;;;1.80;;
17310;SDS011;8773;43.300;0.394;2022-09-04T16:36:53;2.40;;;1.80;;
17310;SDS011;8773;43.300;0.394;2022-09-04T16:39:28;2.65;;;2.00;;
17310;SDS011;8773;43.300;0.394;2022-09-04T16:42:11;2.38;;;1.95;;
17310;SDS011;8773;43.300;0.394;2022-09-04T16:44:46;2.30;;;1.67;;
17310;SDS011;8773;43.300;0.394;2022-09-04T16:47:22;1.80;;;1.70;;
17310;SDS011;8773;43.300;0.394;2022-09-04T16:50:01;1.70;;;1.60;;
17310;SDS011;8773;43.300;0.394;2022-09-04T16:52:42;3.38;;;1.70;;
17310;SDS011;8773;43.300;0.394;2022-09-04T16:55:39;1.90;;;1.80;;
17310;SDS011;8773;43.300;0.394;2022-09-04T16:58:16;2.00;;;1.90;;
17310;SDS011;8773;43.300;0.394;2022-09-04T17:01:02;2.42;;;1.73;;
17310;SDS011;8773;43.300;0.394;2022-09-04T17:06:43;1.77;;;1.60;;
17310;SDS011;8773;43.300;0.394;2022-09-04T17:09:24;2.00;;;1.85;;
17310;SDS011;8773;43.300;0.394;2022-09-04T17:11:59;2.60;;;1.80;;
17310;SDS011;8773;43.300;0.394;2022-09-04T17:14:44;1.88;;;1.58;;
17310;SDS011;8773;43.300;0.394;2022-09-04T17:17:18;2.00;;;1.90;;
17310;SDS011;8773;43.300;0.394;2022-09-04T17:20:01;1.63;;;1.52;;
17310;SDS011;8773;43.300;0.394;2022-09-04T17:22:41;1.75;;;1.65;;
17310;SDS011;8773;43.300;0.394;2022-09-04T17:25:35;1.80;;;1.70;;
17310;SDS011;8773;43.300;0.394;2022-09-04T17:28:31;2.20;;;2.00;;
17310;SDS011;8773;43.300;0.394;2022-09-04T17:31:40;2.05;;;1.95;;
17310;SDS011;8773;43.300;0.394;2022-09-04T17:34:18;1.65;;;1.65;;
17310;SDS011;8773;43.300;0.394;2022-09-04T17:37:30;2.42;;;2.00;;
17310;SDS011;8773;43.300;0.394;2022-09-04T17:40:26;2.42;;;1.77;;
17310;SDS011;8773;43.300;0.394;2022-09-04T17:43:21;2.00;;;1.90;;
17310;SDS011;8773;43.300;0.394;2022-09-04T17:45:58;2.90;;;2.22;;
17310;SDS011;8773;43.300;0.394;2022-09-04T17:48:38;2.50;;;2.17;;
17310;SDS011;8773;43.300;0.394;2022-09-04T17:51:13;3.83;;;2.10;;
17310;SDS011;8773;43.300;0.394;2022-09-04T17:53:46;2.33;;;2.22;;
17310;SDS011;8773;43.300;0.394;2022-09-04T17:56:22;2.65;;;2.50;;
17310;SDS011;8773;43.300;0.394;2022-09-04T17:58:57;2.20;;;2.10;;
17310;SDS011;8773;43.300;0.394;2022-09-04T18:01:32;2.33;;;2.13;;
17310;SDS011;8773;43.300;0.394;2022-09-04T18:04:11;2.15;;;1.98;;
17310;SDS011;8773;43.300;0.394;2022-09-04T18:06:47;2.20;;;1.98;;
17310;SDS011;8773;43.300;0.394;2022-09-04T18:09:20;2.40;;;2.05;;
17310;SDS011;8773;43.300;0.394;2022-09-04T18:11:59;3.22;;;2.00;;
17310;SDS011;8773;43.300;0.394;2022-09-04T18:14:38;2.55;;;2.13;;
17310;SDS011;8773;43.300;0.394;2022-09-04T18:17:44;3.28;;;2.38;;
17310;SDS011;8773;43.300;0.394;2022-09-04T18:20:22;2.88;;;2.70;;
17310;SDS011;8773;43.300;0.394;2022-09-04T18:23:00;2.30;;;2.20;;
17310;SDS011;8773;43.300;0.394;2022-09-04T18:25:41;2.30;;;2.20;;
17310;SDS011;8773;43.300;0.394;2022-09-04T18:28:19;3.17;;;2.50;;
17310;SDS011;8773;43.300;0.394;2022-09-04T18:30:58;2.47;;;2.28;;